LIPK/FRL METAR and TAF weather

Enter ICAO airport designator
Station Type Date Time Source
LIPK METAR 2021/05/14 06:50 UTC NOAA

LIPK 140650Z 23010G21KT CAVOK 18/07 Q1008


Station Type Date Time Source
LIPK Decoded METAR 2021/05/14 06:50 UTC NOAA

Forli, Italy (LIPK) 44-12N 012-04E 32M
May 14, 2021 - 02:50 AM EDT / 2021.05.14 0650 UTC
Wind: from the SW (230 degrees) at 12 MPH (10 KT) gusting to 24 MPH (21 KT):0
Visibility: greater than 7 mile(s):0
Temperature: 64 F (18 C)
Dew Point: 44 F (7 C)
Relative Humidity: 48%
Pressure (altimeter): 29.77 in. Hg (1008 hPa)
ob: LIPK 140650Z 23010G21KT CAVOK 18/07 Q1008
cycle: 7

Station Type Date Time Source
LIPK TAF 2021/05/14 07:24 UTC NOAA

TAF LIPK 140618Z 1407/1506 24010KT 9999 FEW030
TEMPO 1410/1414 SHRA BKN014
TEMPO 1414/1417 24015G25KT
BECMG 1417/1419 30010KT
BECMG 1420/1422 VRB05KT

Example: see airport list